sensor_id;sensor_type;location;lat;lon;timestamp;temperature;humidity
69054;DHT22;56125;52.242;4.756;2023-05-10T00:04:19;19.70;60.80
69054;DHT22;56125;52.242;4.756;2023-05-10T00:09:20;20.00;61.00
69054;DHT22;56125;52.242;4.756;2023-05-10T00:14:21;20.00;61.10
69054;DHT22;56125;52.242;4.756;2023-05-10T00:19:22;20.00;60.90
69054;DHT22;56125;52.242;4.756;2023-05-10T00:24:23;20.00;60.90
69054;DHT22;56125;52.242;4.756;2023-05-10T00:29:24;20.00;60.90
69054;DHT22;56125;52.242;4.756;2023-05-10T00:34:25;20.00;60.90
69054;DHT22;56125;52.242;4.756;2023-05-10T00:39:26;20.00;60.90
69054;DHT22;56125;52.242;4.756;2023-05-10T00:44:29;19.70;60.80
69054;DHT22;56125;52.242;4.756;2023-05-10T00:49:31;19.90;60.70
69054;DHT22;56125;52.242;4.756;2023-05-10T00:54:32;19.90;60.70
69054;DHT22;56125;52.242;4.756;2023-05-10T00:59:33;19.90;60.70
69054;DHT22;56125;52.242;4.756;2023-05-10T01:04:35;19.90;60.70
69054;DHT22;56125;52.242;4.756;2023-05-10T01:09:36;19.90;60.60
69054;DHT22;56125;52.242;4.756;2023-05-10T01:14:37;19.90;61.60
69054;DHT22;56125;52.242;4.756;2023-05-10T01:19:38;19.90;60.50
69054;DHT22;56125;52.242;4.756;2023-05-10T01:30:22;19.90;60.50
69054;DHT22;56125;52.242;4.756;2023-05-10T01:35:42;19.90;60.40
69054;DHT22;56125;52.242;4.756;2023-05-10T01:46:17;19.90;60.50
69054;DHT22;56125;52.242;4.756;2023-05-10T01:51:23;19.90;60.40
69054;DHT22;56125;52.242;4.756;2023-05-10T01:56:26;19.90;60.40
69054;DHT22;56125;52.242;4.756;2023-05-10T02:01:28;19.90;60.40
69054;DHT22;56125;52.242;4.756;2023-05-10T02:06:31;19.80;60.40
69054;DHT22;56125;52.242;4.756;2023-05-10T02:11:33;19.80;60.40
69054;DHT22;56125;52.242;4.756;2023-05-10T02:16:35;19.80;60.40
69054;DHT22;56125;52.242;4.756;2023-05-10T02:21:38;19.80;60.40
69054;DHT22;56125;52.242;4.756;2023-05-10T02:26:40;19.80;60.30
69054;DHT22;56125;52.242;4.756;2023-05-10T02:31:43;19.80;60.50
69054;DHT22;56125;52.242;4.756;2023-05-10T02:36:44;19.80;60.40
69054;DHT22;56125;52.242;4.756;2023-05-10T02:41:48;19.80;60.40
69054;DHT22;56125;52.242;4.756;2023-05-10T02:46:49;19.80;60.40
69054;DHT22;56125;52.242;4.756;2023-05-10T02:51:56;19.80;60.40
69054;DHT22;56125;52.242;4.756;2023-05-10T02:57:04;19.80;60.40
69054;DHT22;56125;52.242;4.756;2023-05-10T03:02:06;19.40;60.30
69054;DHT22;56125;52.242;4.756;2023-05-10T03:07:07;19.80;60.40
69054;DHT22;56125;52.242;4.756;2023-05-10T03:12:31;19.80;60.90
69054;DHT22;56125;52.242;4.756;2023-05-10T03:22:47;19.80;60.40
69054;DHT22;56125;52.242;4.756;2023-05-10T03:27:49;19.70;60.50
69054;DHT22;56125;52.242;4.756;2023-05-10T03:32:50;19.70;60.50
69054;DHT22;56125;52.242;4.756;2023-05-10T03:37:52;19.70;60.40
69054;DHT22;56125;52.242;4.756;2023-05-10T03:42:53;19.70;60.50
69054;DHT22;56125;52.242;4.756;2023-05-10T03:47:54;19.70;60.50
69054;DHT22;56125;52.242;4.756;2023-05-10T03:52:55;19.70;60.40
69054;DHT22;56125;52.242;4.756;2023-05-10T03:57:57;19.70;60.40
69054;DHT22;56125;52.242;4.756;2023-05-10T04:02:58;20.00;60.50
69054;DHT22;56125;52.242;4.756;2023-05-10T04:07:59;19.70;60.40
69054;DHT22;56125;52.242;4.756;2023-05-10T04:13:01;19.70;60.20
69054;DHT22;56125;52.242;4.756;2023-05-10T04:18:02;19.70;60.30
69054;DHT22;56125;52.242;4.756;2023-05-10T04:23:03;19.90;60.40
69054;DHT22;56125;52.242;4.756;2023-05-10T04:28:04;19.70;60.20
69054;DHT22;56125;52.242;4.756;2023-05-10T04:33:05;19.70;60.20
69054;DHT22;56125;52.242;4.756;2023-05-10T04:38:06;19.70;60.40
69054;DHT22;56125;52.242;4.756;2023-05-10T04:43:07;19.60;60.20
69054;DHT22;56125;52.242;4.756;2023-05-10T04:48:08;19.70;60.20
69054;DHT22;56125;52.242;4.756;2023-05-10T04:53:09;19.70;60.10
69054;DHT22;56125;52.242;4.756;2023-05-10T04:58:10;19.70;60.30
69054;DHT22;56125;52.242;4.756;2023-05-10T05:03:11;19.70;60.40
69054;DHT22;56125;52.242;4.756;2023-05-10T05:08:12;19.70;60.40
69054;DHT22;56125;52.242;4.756;2023-05-10T05:13:13;19.70;60.80
69054;DHT22;56125;52.242;4.756;2023-05-10T05:18:14;19.70;60.70
69054;DHT22;56125;52.242;4.756;2023-05-10T05:23:15;19.60;60.70
69054;DHT22;56125;52.242;4.756;2023-05-10T05:28:17;19.70;60.50
69054;DHT22;56125;52.242;4.756;2023-05-10T05:33:18;19.70;60.40
69054;DHT22;56125;52.242;4.756;2023-05-10T05:38:19;19.70;60.20
69054;DHT22;56125;52.242;4.756;2023-05-10T05:43:20;19.70;60.10
69054;DHT22;56125;52.242;4.756;2023-05-10T05:48:21;19.70;60.50
69054;DHT22;56125;52.242;4.756;2023-05-10T05:53:22;19.70;60.00
69054;DHT22;56125;52.242;4.756;2023-05-10T05:58:25;19.70;60.00
69054;DHT22;56125;52.242;4.756;2023-05-10T06:03:26;19.70;60.00
69054;DHT22;56125;52.242;4.756;2023-05-10T06:08:27;19.70;59.90
69054;DHT22;56125;52.242;4.756;2023-05-10T06:13:28;20.00;60.00
69054;DHT22;56125;52.242;4.756;2023-05-10T06:18:33;20.00;60.00
69054;DHT22;56125;52.242;4.756;2023-05-10T06:23:34;19.70;59.80
69054;DHT22;56125;52.242;4.756;2023-05-10T06:28:35;19.70;59.80
69054;DHT22;56125;52.242;4.756;2023-05-10T06:33:38;19.70;59.90
69054;DHT22;56125;52.242;4.756;2023-05-10T06:38:40;19.70;59.80
69054;DHT22;56125;52.242;4.756;2023-05-10T06:43:41;19.70;59.90
69054;DHT22;56125;52.242;4.756;2023-05-10T06:48:42;19.80;59.80
69054;DHT22;56125;52.242;4.756;2023-05-10T06:53:43;19.80;59.60
69054;DHT22;56125;52.242;4.756;2023-05-10T06:58:44;19.20;59.40
69054;DHT22;56125;52.242;4.756;2023-05-10T07:03:45;20.30;59.80
69054;DHT22;56125;52.242;4.756;2023-05-10T07:08:46;19.80;59.60
69054;DHT22;56125;52.242;4.756;2023-05-10T07:13:47;19.80;59.70
69054;DHT22;56125;52.242;4.756;2023-05-10T07:18:48;19.80;59.60
69054;DHT22;56125;52.242;4.756;2023-05-10T07:23:51;19.80;59.50
69054;DHT22;56125;52.242;4.756;2023-05-10T07:28:52;19.80;59.50
69054;DHT22;56125;52.242;4.756;2023-05-10T07:33:53;19.80;59.40
69054;DHT22;56125;52.242;4.756;2023-05-10T07:38:54;19.80;59.40
69054;DHT22;56125;52.242;4.756;2023-05-10T07:43:55;19.80;59.30
69054;DHT22;56125;52.242;4.756;2023-05-10T07:48:56;19.80;59.40
69054;DHT22;56125;52.242;4.756;2023-05-10T07:53:57;19.80;59.30
69054;DHT22;56125;52.242;4.756;2023-05-10T07:58:59;19.90;59.40
69054;DHT22;56125;52.242;4.756;2023-05-10T08:04:01;19.90;59.30
69054;DHT22;56125;52.242;4.756;2023-05-10T08:09:02;19.90;59.30
69054;DHT22;56125;52.242;4.756;2023-05-10T08:14:03;19.90;59.20
69054;DHT22;56125;52.242;4.756;2023-05-10T08:19:04;19.90;59.20
69054;DHT22;56125;52.242;4.756;2023-05-10T08:24:05;19.90;59.10
69054;DHT22;56125;52.242;4.756;2023-05-10T08:29:06;19.90;59.00
69054;DHT22;56125;52.242;4.756;2023-05-10T08:34:07;19.90;59.90
69054;DHT22;56125;52.242;4.756;2023-05-10T08:39:08;19.90;58.90
69054;DHT22;56125;52.242;4.756;2023-05-10T08:44:10;19.90;59.00
69054;DHT22;56125;52.242;4.756;2023-05-10T08:49:13;20.00;59.00
69054;DHT22;56125;52.242;4.756;2023-05-10T08:54:17;20.00;59.00
69054;DHT22;56125;52.242;4.756;2023-05-10T08:59:19;19.90;58.90
69054;DHT22;56125;52.242;4.756;2023-05-10T09:04:20;20.50;59.20
69054;DHT22;56125;52.242;4.756;2023-05-10T09:09:23;20.00;58.90
69054;DHT22;56125;52.242;4.756;2023-05-10T09:14:25;20.00;58.80
69054;DHT22;56125;52.242;4.756;2023-05-10T09:19:27;20.00;58.80
69054;DHT22;56125;52.242;4.756;2023-05-10T09:24:30;20.00;58.80
69054;DHT22;56125;52.242;4.756;2023-05-10T09:29:43;20.00;58.80
69054;DHT22;56125;52.242;4.756;2023-05-10T09:34:49;19.90;58.80
69054;DHT22;56125;52.242;4.756;2023-05-10T09:39:54;20.00;58.70
69054;DHT22;56125;52.242;4.756;2023-05-10T09:45:03;20.00;58.80
69054;DHT22;56125;52.242;4.756;2023-05-10T09:50:05;20.10;58.80
69054;DHT22;56125;52.242;4.756;2023-05-10T09:55:07;20.00;58.70
69054;DHT22;56125;52.242;4.756;2023-05-10T10:00:08;20.00;58.60
69054;DHT22;56125;52.242;4.756;2023-05-10T10:05:13;20.00;58.70
69054;DHT22;56125;52.242;4.756;2023-05-10T10:10:14;20.00;58.70
69054;DHT22;56125;52.242;4.756;2023-05-10T10:15:15;20.00;58.60
69054;DHT22;56125;52.242;4.756;2023-05-10T10:20:18;20.00;58.60
69054;DHT22;56125;52.242;4.756;2023-05-10T10:25:20;20.00;58.60
69054;DHT22;56125;52.242;4.756;2023-05-10T10:30:43;20.00;58.60
69054;DHT22;56125;52.242;4.756;2023-05-10T10:35:45;20.00;58.50
69054;DHT22;56125;52.242;4.756;2023-05-10T10:40:47;20.10;58.60
69054;DHT22;56125;52.242;4.756;2023-05-10T10:46:14;20.10;58.40
69054;DHT22;56125;52.242;4.756;2023-05-10T10:51:15;20.10;58.40
69054;DHT22;56125;52.242;4.756;2023-05-10T10:56:22;20.10;58.50
69054;DHT22;56125;52.242;4.756;2023-05-10T11:01:33;20.10;58.40
69054;DHT22;56125;52.242;4.756;2023-05-10T11:06:37;20.10;58.40
69054;DHT22;56125;52.242;4.756;2023-05-10T11:11:54;20.10;58.40
69054;DHT22;56125;52.242;4.756;2023-05-10T11:17:01;20.10;58.30
69054;DHT22;56125;52.242;4.756;2023-05-10T11:27:06;20.00;58.40
69054;DHT22;56125;52.242;4.756;2023-05-10T11:32:07;20.10;58.40
69054;DHT22;56125;52.242;4.756;2023-05-10T11:37:08;20.20;58.40
69054;DHT22;56125;52.242;4.756;2023-05-10T11:42:12;20.10;58.30
69054;DHT22;56125;52.242;4.756;2023-05-10T11:47:13;20.10;58.50
69054;DHT22;56125;52.242;4.756;2023-05-10T11:52:14;20.10;58.50
69054;DHT22;56125;52.242;4.756;2023-05-10T11:57:15;20.10;58.50
69054;DHT22;56125;52.242;4.756;2023-05-10T12:02:16;20.10;58.40
69054;DHT22;56125;52.242;4.756;2023-05-10T12:07:17;20.20;58.40
69054;DHT22;56125;52.242;4.756;2023-05-10T12:12:18;20.10;58.40
69054;DHT22;56125;52.242;4.756;2023-05-10T12:17:19;20.10;58.90
69054;DHT22;56125;52.242;4.756;2023-05-10T12:22:21;20.10;58.30
69054;DHT22;56125;52.242;4.756;2023-05-10T12:27:22;20.20;58.30
69054;DHT22;56125;52.242;4.756;2023-05-10T12:32:40;20.20;58.30
69054;DHT22;56125;52.242;4.756;2023-05-10T12:37:44;20.20;58.30
69054;DHT22;56125;52.242;4.756;2023-05-10T12:42:45;20.20;58.20
69054;DHT22;56125;52.242;4.756;2023-05-10T12:47:47;20.30;58.10
69054;DHT22;56125;52.242;4.756;2023-05-10T12:52:48;20.20;58.10
69054;DHT22;56125;52.242;4.756;2023-05-10T12:57:49;20.20;58.10
69054;DHT22;56125;52.242;4.756;2023-05-10T13:02:50;20.20;58.20
69054;DHT22;56125;52.242;4.756;2023-05-10T13:07:51;20.30;58.10
69054;DHT22;56125;52.242;4.756;2023-05-10T13:12:52;20.30;58.20
69054;DHT22;56125;52.242;4.756;2023-05-10T13:17:54;20.20;58.00
69054;DHT22;56125;52.242;4.756;2023-05-10T13:22:55;20.20;58.20
69054;DHT22;56125;52.242;4.756;2023-05-10T13:27:56;20.20;58.00
69054;DHT22;56125;52.242;4.756;2023-05-10T13:32:57;20.20;58.10
69054;DHT22;56125;52.242;4.756;2023-05-10T13:37:58;20.20;58.20
69054;DHT22;56125;52.242;4.756;2023-05-10T13:42:59;20.20;58.10
69054;DHT22;56125;52.242;4.756;2023-05-10T13:48:00;20.20;58.30
69054;DHT22;56125;52.242;4.756;2023-05-10T13:53:01;20.20;58.10
69054;DHT22;56125;52.242;4.756;2023-05-10T13:58:02;20.30;58.30
69054;DHT22;56125;52.242;4.756;2023-05-10T14:03:03;20.50;59.30
69054;DHT22;56125;52.242;4.756;2023-05-10T14:08:05;20.20;58.10
69054;DHT22;56125;52.242;4.756;2023-05-10T14:13:07;20.20;58.10
69054;DHT22;56125;52.242;4.756;2023-05-10T14:18:08;19.80;57.90
69054;DHT22;56125;52.242;4.756;2023-05-10T14:23:09;20.30;58.10
69054;DHT22;56125;52.242;4.756;2023-05-10T14:28:10;20.20;58.00
69054;DHT22;56125;52.242;4.756;2023-05-10T14:33:12;19.80;57.80
69054;DHT22;56125;52.242;4.756;2023-05-10T14:38:14;20.30;58.00
69054;DHT22;56125;52.242;4.756;2023-05-10T14:43:15;20.30;58.10
69054;DHT22;56125;52.242;4.756;2023-05-10T14:48:16;20.30;58.10
69054;DHT22;56125;52.242;4.756;2023-05-10T14:53:18;20.20;57.90
69054;DHT22;56125;52.242;4.756;2023-05-10T14:58:19;20.30;58.00
69054;DHT22;56125;52.242;4.756;2023-05-10T15:03:20;20.30;57.90
69054;DHT22;56125;52.242;4.756;2023-05-10T15:08:21;20.30;58.00
69054;DHT22;56125;52.242;4.756;2023-05-10T15:13:22;20.20;58.20
69054;DHT22;56125;52.242;4.756;2023-05-10T15:18:23;20.20;57.90
69054;DHT22;56125;52.242;4.756;2023-05-10T15:23:24;20.30;57.90
69054;DHT22;56125;52.242;4.756;2023-05-10T15:28:25;20.20;57.90
69054;DHT22;56125;52.242;4.756;2023-05-10T15:33:26;20.30;58.00
69054;DHT22;56125;52.242;4.756;2023-05-10T15:38:28;20.30;58.10
69054;DHT22;56125;52.242;4.756;2023-05-10T15:43:29;20.30;58.20
69054;DHT22;56125;52.242;4.756;2023-05-10T15:48:30;20.30;57.90
69054;DHT22;56125;52.242;4.756;2023-05-10T15:53:32;20.70;58.20
69054;DHT22;56125;52.242;4.756;2023-05-10T15:58:33;20.30;57.90
69054;DHT22;56125;52.242;4.756;2023-05-10T16:03:34;20.30;57.90
69054;DHT22;56125;52.242;4.756;2023-05-10T16:08:35;20.30;57.80
69054;DHT22;56125;52.242;4.756;2023-05-10T16:13:36;20.30;57.80
69054;DHT22;56125;52.242;4.756;2023-05-10T16:18:37;20.30;57.80
69054;DHT22;56125;52.242;4.756;2023-05-10T16:23:38;20.30;57.90
69054;DHT22;56125;52.242;4.756;2023-05-10T16:28:39;20.30;57.80
69054;DHT22;56125;52.242;4.756;2023-05-10T16:33:41;20.30;57.70
69054;DHT22;56125;52.242;4.756;2023-05-10T16:38:42;20.30;57.80
69054;DHT22;56125;52.242;4.756;2023-05-10T16:43:43;20.30;57.80
69054;DHT22;56125;52.242;4.756;2023-05-10T16:48:44;20.30;57.70
69054;DHT22;56125;52.242;4.756;2023-05-10T16:53:45;20.30;57.70
69054;DHT22;56125;52.242;4.756;2023-05-10T16:58:46;20.30;57.80
69054;DHT22;56125;52.242;4.756;2023-05-10T17:03:49;20.30;58.80
69054;DHT22;56125;52.242;4.756;2023-05-10T17:08:50;20.30;57.70
69054;DHT22;56125;52.242;4.756;2023-05-10T17:13:51;20.30;57.80
69054;DHT22;56125;52.242;4.756;2023-05-10T17:18:52;20.30;57.60
69054;DHT22;56125;52.242;4.756;2023-05-10T17:23:53;20.30;57.60
69054;DHT22;56125;52.242;4.756;2023-05-10T17:28:54;20.30;57.70
69054;DHT22;56125;52.242;4.756;2023-05-10T17:33:55;20.30;57.60
69054;DHT22;56125;52.242;4.756;2023-05-10T17:38:56;20.30;58.10
69054;DHT22;56125;52.242;4.756;2023-05-10T17:43:59;20.30;58.60
69054;DHT22;56125;52.242;4.756;2023-05-10T17:49:00;20.40;59.20
69054;DHT22;56125;52.242;4.756;2023-05-10T17:54:01;20.30;59.30
69054;DHT22;56125;52.242;4.756;2023-05-10T17:59:02;20.40;59.60
69054;DHT22;56125;52.242;4.756;2023-05-10T18:04:03;20.30;59.50
69054;DHT22;56125;52.242;4.756;2023-05-10T18:09:04;20.40;59.50
69054;DHT22;56125;52.242;4.756;2023-05-10T18:14:06;20.20;59.40
69054;DHT22;56125;52.242;4.756;2023-05-10T18:19:08;20.40;59.50
69054;DHT22;56125;52.242;4.756;2023-05-10T18:24:09;20.50;59.40
69054;DHT22;56125;52.242;4.756;2023-05-10T18:29:10;20.50;59.50
69054;DHT22;56125;52.242;4.756;2023-05-10T18:34:11;20.50;59.40
69054;DHT22;56125;52.242;4.756;2023-05-10T18:39:12;20.50;59.40
69054;DHT22;56125;52.242;4.756;2023-05-10T18:44:13;20.50;59.40
69054;DHT22;56125;52.242;4.756;2023-05-10T18:49:14;20.50;59.40
69054;DHT22;56125;52.242;4.756;2023-05-10T18:54:16;20.50;59.40
69054;DHT22;56125;52.242;4.756;2023-05-10T18:59:17;20.50;59.20
69054;DHT22;56125;52.242;4.756;2023-05-10T19:04:18;20.40;59.30
69054;DHT22;56125;52.242;4.756;2023-05-10T19:09:19;20.50;59.20
69054;DHT22;56125;52.242;4.756;2023-05-10T19:14:20;20.50;59.30
69054;DHT22;56125;52.242;4.756;2023-05-10T19:19:22;20.50;59.20
69054;DHT22;56125;52.242;4.756;2023-05-10T19:24:23;20.50;59.20
69054;DHT22;56125;52.242;4.756;2023-05-10T19:29:25;20.50;58.90
69054;DHT22;56125;52.242;4.756;2023-05-10T19:34:26;20.50;58.90
69054;DHT22;56125;52.242;4.756;2023-05-10T19:39:27;20.50;58.70
69054;DHT22;56125;52.242;4.756;2023-05-10T19:44:28;20.30;58.60
69054;DHT22;56125;52.242;4.756;2023-05-10T19:49:29;20.50;59.10
69054;DHT22;56125;52.242;4.756;2023-05-10T19:54:30;20.50;59.20
69054;DHT22;56125;52.242;4.756;2023-05-10T19:59:31;20.50;59.20
69054;DHT22;56125;52.242;4.756;2023-05-10T20:04:32;20.50;59.10
69054;DHT22;56125;52.242;4.756;2023-05-10T20:09:33;20.50;59.20
69054;DHT22;56125;52.242;4.756;2023-05-10T20:14:34;20.50;59.00
69054;DHT22;56125;52.242;4.756;2023-05-10T20:19:35;20.50;59.10
69054;DHT22;56125;52.242;4.756;2023-05-10T20:24:36;20.50;59.00
69054;DHT22;56125;52.242;4.756;2023-05-10T20:29:37;20.50;59.20
69054;DHT22;56125;52.242;4.756;2023-05-10T20:34:38;20.50;59.10
69054;DHT22;56125;52.242;4.756;2023-05-10T20:39:39;20.50;59.20
69054;DHT22;56125;52.242;4.756;2023-05-10T20:44:40;20.50;59.20
69054;DHT22;56125;52.242;4.756;2023-05-10T20:49:41;20.50;59.00
69054;DHT22;56125;52.242;4.756;2023-05-10T20:54:42;20.50;59.20
69054;DHT22;56125;52.242;4.756;2023-05-10T20:59:43;20.50;59.00
69054;DHT22;56125;52.242;4.756;2023-05-10T21:04:49;20.50;59.10
69054;DHT22;56125;52.242;4.756;2023-05-10T21:09:51;20.50;59.00
69054;DHT22;56125;52.242;4.756;2023-05-10T21:14:52;20.50;58.90
69054;DHT22;56125;52.242;4.756;2023-05-10T21:19:53;20.40;58.70
69054;DHT22;56125;52.242;4.756;2023-05-10T21:24:54;20.40;58.60
69054;DHT22;56125;52.242;4.756;2023-05-10T21:29:55;20.40;58.50
69054;DHT22;56125;52.242;4.756;2023-05-10T21:34:56;20.30;58.40
69054;DHT22;56125;52.242;4.756;2023-05-10T21:39:57;20.30;58.40
69054;DHT22;56125;52.242;4.756;2023-05-10T21:44:58;20.30;58.30
69054;DHT22;56125;52.242;4.756;2023-05-10T21:49:59;20.30;58.30
69054;DHT22;56125;52.242;4.756;2023-05-10T21:55:00;20.20;58.20
69054;DHT22;56125;52.242;4.756;2023-05-10T22:00:02;21.00;58.60
69054;DHT22;56125;52.242;4.756;2023-05-10T22:05:03;20.20;58.20
69054;DHT22;56125;52.242;4.756;2023-05-10T22:10:06;20.20;58.00
69054;DHT22;56125;52.242;4.756;2023-05-10T22:15:07;20.20;58.10
69054;DHT22;56125;52.242;4.756;2023-05-10T22:20:08;20.20;58.00
69054;DHT22;56125;52.242;4.756;2023-05-10T22:25:09;20.20;58.00
69054;DHT22;56125;52.242;4.756;2023-05-10T22:30:11;20.20;58.00
69054;DHT22;56125;52.242;4.756;2023-05-10T22:35:12;20.20;57.90
69054;DHT22;56125;52.242;4.756;2023-05-10T22:40:13;20.20;57.80
69054;DHT22;56125;52.242;4.756;2023-05-10T22:45:14;20.10;57.70
69054;DHT22;56125;52.242;4.756;2023-05-10T22:50:15;20.20;57.80
69054;DHT22;56125;52.242;4.756;2023-05-10T22:55:16;20.10;57.70
69054;DHT22;56125;52.242;4.756;2023-05-10T23:00:17;20.10;57.80
69054;DHT22;56125;52.242;4.756;2023-05-10T23:05:19;20.10;57.80
69054;DHT22;56125;52.242;4.756;2023-05-10T23:10:20;20.00;57.80
69054;DHT22;56125;52.242;4.756;2023-05-10T23:15:21;20.10;57.70
69054;DHT22;56125;52.242;4.756;2023-05-10T23:20:22;20.00;57.60
69054;DHT22;56125;52.242;4.756;2023-05-10T23:25:23;20.10;57.70
69054;DHT22;56125;52.242;4.756;2023-05-10T23:30:24;20.00;57.60
69054;DHT22;56125;52.242;4.756;2023-05-10T23:35:25;20.00;57.60
69054;DHT22;56125;52.242;4.756;2023-05-10T23:40:26;20.00;57.60
69054;DHT22;56125;52.242;4.756;2023-05-10T23:45:27;20.00;57.60
69054;DHT22;56125;52.242;4.756;2023-05-10T23:50:28;20.00;57.60
69054;DHT22;56125;52.242;4.756;2023-05-10T23:55:29;20.00;57.70
